Terminal Aerodrome Forecast
Issued by NWS Spokane, WA

Home | Current Version | Previous Version | Text Only | Print | Product List | Glossary On
Versions: 1 2 3 4 5 6 7 8 9 10 11 12 13 14 15 16 17 18 19 20 21 22 23 24 25 26 27 28 29 30 31 32 33 34 35
000
FTUS46 KOTX 011139
TAFEAT
TAF
KEAT 011139Z 0112/0212 VRB03KT P6SM VCSH BKN020 OVC070
      TEMPO 0115/0119 3SM -SN OVC015
     FM012000 11003KT P6SM OVC020
     FM020100 08003KT P6SM SCT020 BKN040=

USA.gov is the U.S. government's official web portal to all federal, state and local government web resources and services.